createdAt,value
2023-02-15T00:00:12.225Z,14.90
2023-02-15T00:02:40.984Z,15.17
2023-02-15T00:05:09.545Z,15.50
2023-02-15T00:07:37.532Z,14.40
2023-02-15T00:10:06.342Z,14.70
2023-02-15T00:12:35.548Z,13.67
2023-02-15T00:15:03.435Z,14.43
2023-02-15T00:17:31.457Z,15.37
2023-02-15T00:19:59.313Z,15.27
2023-02-15T00:22:27.848Z,13.73
2023-02-15T00:24:55.717Z,14.67
2023-02-15T00:27:23.714Z,15.07
2023-02-15T00:29:53.048Z,14.97
2023-02-15T00:32:20.967Z,14.83
2023-02-15T00:34:48.902Z,15.10
2023-02-15T00:37:17.794Z,15.43
2023-02-15T00:39:45.645Z,15.03
2023-02-15T00:42:13.594Z,14.40
2023-02-15T00:44:41.545Z,15.77
2023-02-15T00:47:10.908Z,15.00
2023-02-15T00:49:38.828Z,15.60
2023-02-15T00:52:07.666Z,15.60
2023-02-15T00:54:36.595Z,15.00
2023-02-15T00:57:04.510Z,14.40
2023-02-15T00:59:32.579Z,13.63
2023-02-15T01:02:00.453Z,15.30
2023-02-15T01:04:29.662Z,15.50
2023-02-15T01:06:57.743Z,14.33
2023-02-15T01:09:25.708Z,14.57
2023-02-15T01:11:53.566Z,15.43
2023-02-15T01:14:21.418Z,14.27
2023-02-15T01:16:49.278Z,14.20
2023-02-15T01:19:17.170Z,16.30
2023-02-15T01:21:46.584Z,15.63
2023-02-15T01:24:15.484Z,15.13
2023-02-15T01:26:46.549Z,15.03
2023-02-15T01:29:14.520Z,13.23
2023-02-15T01:31:42.527Z,14.87
2023-02-15T01:34:10.569Z,14.17
2023-02-15T01:36:38.472Z,14.13
2023-02-15T01:39:08.645Z,14.80
2023-02-15T01:41:36.520Z,15.53
2023-02-15T01:44:05.577Z,13.83
2023-02-15T01:46:39.613Z,14.10
2023-02-15T01:49:12.184Z,14.40
2023-02-15T01:51:44.014Z,14.83
2023-02-15T01:54:18.862Z,14.90
2023-02-15T01:56:48.595Z,14.07
2023-02-15T01:59:21.234Z,13.47
2023-02-15T02:01:49.403Z,13.90
2023-02-15T02:04:25.029Z,13.90
2023-02-15T02:06:55.143Z,13.47
2023-02-15T02:09:24.381Z,14.17
2023-02-15T02:11:52.698Z,13.70
2023-02-15T02:14:20.791Z,14.13
2023-02-15T02:16:59.494Z,13.97
2023-02-15T02:19:56.263Z,14.17
2023-02-15T02:23:13.934Z,13.40
2023-02-15T02:26:15.896Z,14.13
2023-02-15T02:29:10.414Z,12.73
2023-02-15T02:31:51.889Z,13.43
2023-02-15T02:34:27.688Z,13.00
2023-02-15T02:37:01.840Z,14.10
2023-02-15T02:39:51.170Z,14.00
2023-02-15T02:42:27.632Z,13.87
2023-02-15T02:45:02.373Z,13.37
2023-02-15T02:47:36.319Z,12.63
2023-02-15T02:50:08.838Z,13.17
2023-02-15T02:52:43.527Z,13.37
2023-02-15T02:55:17.606Z,14.20
2023-02-15T02:57:54.113Z,13.40
2023-02-15T03:00:23.717Z,13.23
2023-02-15T03:02:56.761Z,14.77
2023-02-15T03:05:31.458Z,12.40
2023-02-15T03:08:02.174Z,13.27
2023-02-15T03:10:31.559Z,13.73
2023-02-15T03:12:59.497Z,12.80
2023-02-15T03:15:52.744Z,13.23
2023-02-15T03:18:24.784Z,12.57
2023-02-15T03:20:55.389Z,12.50
2023-02-15T03:23:26.108Z,12.87
2023-02-15T03:25:57.362Z,13.77
2023-02-15T03:28:30.737Z,13.50
2023-02-15T03:31:04.832Z,13.00
2023-02-15T03:33:33.833Z,12.60
2023-02-15T03:36:10.619Z,14.73
2023-02-15T03:38:45.360Z,13.80
2023-02-15T03:41:14.798Z,12.93
2023-02-15T03:43:50.774Z,12.70
2023-02-15T03:46:26.495Z,13.03
2023-02-15T03:48:57.411Z,12.97
2023-02-15T03:51:38.962Z,12.87
2023-02-15T03:54:10.575Z,12.07
2023-02-15T03:56:41.652Z,13.03
2023-02-15T03:59:27.035Z,13.33
2023-02-15T04:02:06.940Z,12.17
2023-02-15T04:04:37.554Z,13.37
2023-02-15T04:07:08.941Z,12.63
2023-02-15T04:09:54.566Z,11.67
2023-02-15T04:12:22.467Z,12.80
2023-02-15T04:15:07.730Z,13.67
2023-02-15T04:17:35.641Z,13.37
2023-02-15T04:20:21.230Z,12.47
2023-02-15T04:23:08.144Z,13.73
2023-02-15T04:25:35.947Z,12.07
2023-02-15T04:28:03.791Z,13.33
2023-02-15T04:30:31.785Z,11.57
2023-02-15T04:32:59.707Z,12.07
2023-02-15T04:35:27.718Z,12.97
2023-02-15T04:37:57.749Z,12.97
2023-02-15T04:40:26.435Z,13.17
2023-02-15T04:42:54.418Z,13.13
2023-02-15T04:45:22.328Z,12.23
2023-02-15T04:47:50.399Z,12.23
2023-02-15T04:50:18.622Z,12.73
2023-02-15T04:52:46.691Z,12.73
2023-02-15T04:55:16.054Z,12.43
2023-02-15T04:57:44.099Z,12.23
2023-02-15T05:00:13.013Z,11.87
2023-02-15T05:02:42.032Z,12.43
2023-02-15T05:05:13.909Z,12.77
2023-02-15T05:07:41.793Z,12.17
2023-02-15T05:10:10.657Z,12.03
2023-02-15T05:12:39.876Z,11.93
2023-02-15T05:15:08.251Z,11.80
2023-02-15T05:17:36.110Z,11.70
2023-02-15T05:20:04.450Z,10.83
2023-02-15T05:22:32.294Z,11.23
2023-02-15T05:25:17.738Z,11.47
2023-02-15T05:28:05.384Z,11.83
2023-02-15T05:30:33.670Z,12.50
2023-02-15T05:33:01.620Z,11.43
2023-02-15T05:35:29.589Z,11.27
2023-02-15T05:37:57.467Z,11.80
2023-02-15T05:40:25.510Z,11.70
2023-02-15T05:42:54.796Z,10.93
2023-02-15T05:45:22.649Z,12.13
2023-02-15T05:47:51.555Z,12.40
2023-02-15T05:50:19.683Z,11.77
2023-02-15T05:52:47.699Z,12.97
2023-02-15T05:55:15.801Z,10.17
2023-02-15T05:57:43.627Z,11.80
2023-02-15T06:00:15.858Z,11.47
2023-02-15T06:02:43.811Z,10.80
2023-02-15T06:05:11.706Z,11.50
2023-02-15T06:07:39.560Z,11.93
2023-02-15T06:10:08.772Z,11.20
2023-02-15T06:12:36.690Z,11.97
2023-02-15T06:15:05.381Z,11.03
2023-02-15T06:17:34.617Z,12.43
2023-02-15T06:20:02.556Z,11.20
2023-02-15T06:22:30.530Z,11.23
2023-02-15T06:24:58.433Z,11.63
2023-02-15T06:27:27.843Z,12.20
2023-02-15T06:29:55.838Z,12.03
2023-02-15T06:32:23.729Z,12.47
2023-02-15T06:34:52.971Z,11.90
2023-02-15T06:37:20.859Z,11.10
2023-02-15T06:39:48.993Z,12.47
2023-02-15T06:42:19.086Z,11.63
2023-02-15T06:44:47.087Z,11.17
2023-02-15T06:47:14.961Z,12.13
2023-02-15T06:49:42.885Z,11.87
2023-02-15T06:52:14.256Z,12.43
2023-02-15T06:54:42.219Z,11.67
2023-02-15T06:57:10.910Z,11.27
2023-02-15T06:59:38.842Z,11.40
2023-02-15T07:02:06.739Z,10.90
2023-02-15T07:04:37.102Z,11.03
2023-02-15T07:07:05.589Z,10.33
2023-02-15T07:09:35.052Z,10.17
2023-02-15T07:12:21.004Z,11.17
2023-02-15T07:14:48.971Z,11.03
2023-02-15T07:17:35.070Z,11.03
2023-02-15T07:20:04.617Z,11.20
2023-02-15T07:22:32.498Z,10.40
2023-02-15T07:25:01.803Z,11.87
2023-02-15T07:27:30.124Z,10.47
2023-02-15T07:29:57.981Z,11.47
2023-02-15T07:32:26.127Z,10.87
2023-02-15T07:34:54.369Z,10.17
2023-02-15T07:37:22.394Z,10.30
2023-02-15T07:39:50.524Z,10.00
2023-02-15T07:42:20.883Z,11.00
2023-02-15T07:44:49.563Z,11.60
2023-02-15T07:47:17.741Z,10.20
2023-02-15T07:49:45.642Z,10.87
2023-02-15T07:52:13.568Z,10.03
2023-02-15T07:54:41.421Z,10.13
2023-02-15T07:57:09.347Z,11.40
2023-02-15T07:59:38.529Z,9.70
2023-02-15T08:02:11.331Z,11.23
2023-02-15T08:04:40.299Z,11.63
2023-02-15T08:07:08.788Z,10.53
2023-02-15T08:09:36.709Z,11.73
2023-02-15T08:12:05.207Z,11.43
2023-02-15T08:14:33.685Z,11.27
2023-02-15T08:17:03.690Z,10.20
2023-02-15T08:19:33.441Z,11.40
2023-02-15T08:22:03.576Z,10.73
2023-02-15T08:24:33.035Z,10.20
2023-02-15T08:27:05.994Z,11.07
2023-02-15T08:29:35.176Z,10.80
2023-02-15T08:32:06.367Z,12.13
2023-02-15T08:34:37.046Z,11.20
2023-02-15T08:37:06.894Z,10.93
2023-02-15T08:39:35.090Z,10.17
2023-02-15T08:42:03.317Z,11.30
2023-02-15T08:44:31.195Z,10.33
2023-02-15T08:47:03.698Z,10.90
2023-02-15T08:49:33.350Z,11.23
2023-02-15T08:52:01.589Z,10.07
2023-02-15T08:54:29.534Z,11.43
2023-02-15T08:56:57.670Z,10.87
2023-02-15T08:59:27.692Z,11.33
2023-02-15T09:01:56.495Z,11.57
2023-02-15T09:04:24.759Z,10.73
2023-02-15T09:06:54.201Z,11.17
2023-02-15T09:09:22.471Z,10.83
2023-02-15T09:11:58.603Z,10.87
2023-02-15T09:14:27.700Z,10.40
2023-02-15T09:16:56.332Z,10.60
2023-02-15T09:19:25.081Z,10.57
2023-02-15T09:21:54.412Z,10.73
2023-02-15T09:24:22.328Z,11.23
2023-02-15T09:26:53.309Z,10.70
2023-02-15T09:29:21.898Z,11.17
2023-02-15T09:31:52.129Z,10.37
2023-02-15T09:34:22.383Z,10.30
2023-02-15T09:36:51.927Z,10.77
2023-02-15T09:39:24.524Z,10.60
2023-02-15T09:42:21.890Z,10.90
2023-02-15T09:45:09.602Z,8.93
2023-02-15T09:48:05.088Z,9.37
2023-02-15T09:50:44.440Z,9.93
2023-02-15T09:53:29.820Z,8.60
2023-02-15T09:56:08.626Z,9.93
2023-02-15T09:58:46.221Z,9.40
2023-02-15T10:01:22.761Z,9.50
2023-02-15T10:04:03.186Z,8.57
2023-02-15T10:06:45.950Z,9.17
2023-02-15T10:09:25.298Z,9.00
2023-02-15T10:12:14.991Z,9.23
2023-02-15T10:15:12.456Z,8.47
2023-02-15T10:17:53.882Z,9.07
2023-02-15T10:20:30.756Z,8.53
2023-02-15T10:23:21.810Z,8.80
2023-02-15T10:25:56.019Z,8.23
2023-02-15T10:28:32.843Z,9.10
2023-02-15T10:31:06.211Z,8.97
2023-02-15T10:33:41.274Z,8.60
2023-02-15T10:36:21.909Z,9.17
2023-02-15T10:38:57.718Z,9.13
2023-02-15T10:41:38.094Z,7.83
2023-02-15T10:44:23.305Z,8.77
2023-02-15T10:47:20.207Z,8.73
2023-02-15T10:50:01.367Z,9.57
2023-02-15T10:52:44.254Z,8.10
2023-02-15T10:55:20.601Z,8.03
2023-02-15T10:57:57.582Z,8.93
2023-02-15T11:00:33.782Z,8.47
2023-02-15T11:03:24.625Z,8.70
2023-02-15T11:06:03.401Z,8.73
2023-02-15T11:08:36.268Z,8.43
2023-02-15T11:11:08.354Z,8.70
2023-02-15T11:13:41.275Z,8.37
2023-02-15T11:16:17.646Z,8.57
2023-02-15T11:18:52.061Z,9.30
2023-02-15T11:21:24.322Z,8.70
2023-02-15T11:23:53.881Z,8.93
2023-02-15T11:26:29.032Z,8.67
2023-02-15T11:29:01.492Z,8.27
2023-02-15T11:31:45.454Z,7.70
2023-02-15T11:34:20.749Z,9.60
2023-02-15T11:36:53.193Z,8.80
2023-02-15T11:39:24.034Z,7.93
2023-02-15T11:41:55.292Z,9.07
2023-02-15T11:44:27.325Z,8.27
2023-02-15T11:46:56.583Z,8.50
2023-02-15T11:49:28.317Z,8.70
2023-02-15T11:51:58.739Z,8.07
2023-02-15T11:54:31.605Z,8.77
2023-02-15T11:57:05.744Z,8.40
2023-02-15T11:59:37.667Z,8.20
2023-02-15T12:02:18.332Z,7.87
2023-02-15T12:04:51.573Z,7.93
2023-02-15T12:07:26.469Z,7.77
2023-02-15T12:10:01.655Z,8.80
2023-02-15T12:12:31.444Z,7.90
2023-02-15T12:15:00.556Z,7.87
2023-02-15T12:17:38.001Z,7.37
2023-02-15T12:20:09.397Z,8.43
2023-02-15T12:22:39.337Z,8.70
2023-02-15T12:25:24.141Z,8.37
2023-02-15T12:27:52.523Z,8.40
2023-02-15T12:30:25.045Z,8.07
2023-02-15T12:32:56.676Z,8.83
2023-02-15T12:35:31.790Z,8.27
2023-02-15T12:38:05.145Z,8.23
2023-02-15T12:40:35.158Z,8.33
2023-02-15T12:43:09.390Z,8.23
2023-02-15T12:45:38.672Z,8.37
2023-02-15T12:48:19.511Z,7.80
2023-02-15T12:50:54.731Z,7.97
2023-02-15T12:53:24.878Z,8.70
2023-02-15T12:55:55.941Z,8.30
2023-02-15T12:58:26.206Z,7.77
2023-02-15T13:01:06.928Z,8.77
2023-02-15T13:03:37.141Z,8.30
2023-02-15T13:06:08.409Z,8.30
2023-02-15T13:08:41.268Z,8.70
2023-02-15T13:11:11.295Z,8.90
2023-02-15T13:13:52.940Z,9.13
2023-02-15T13:16:30.268Z,8.40
2023-02-15T13:19:00.599Z,9.27
2023-02-15T13:21:33.823Z,8.80
2023-02-15T13:24:06.823Z,8.20
2023-02-15T13:26:36.326Z,8.17
2023-02-15T13:29:10.498Z,8.80
2023-02-15T13:31:40.703Z,9.07
2023-02-15T13:34:14.208Z,7.97
2023-02-15T13:36:51.590Z,8.50
2023-02-15T13:39:29.527Z,8.90
2023-02-15T13:42:05.380Z,8.57
2023-02-15T13:45:04.244Z,8.50
2023-02-15T13:47:40.016Z,8.93
2023-02-15T13:50:24.871Z,9.20
2023-02-15T13:53:00.073Z,8.20
2023-02-15T13:55:39.455Z,8.13
2023-02-15T13:58:55.060Z,8.47
2023-02-15T14:01:31.849Z,8.70
2023-02-15T14:04:36.412Z,8.73
2023-02-15T14:07:35.673Z,8.17
2023-02-15T14:10:20.441Z,8.80
2023-02-15T14:13:07.499Z,7.93
2023-02-15T14:15:42.806Z,7.73
2023-02-15T14:18:25.314Z,7.87
2023-02-15T14:21:01.309Z,8.40
2023-02-15T14:23:45.802Z,8.90
2023-02-15T14:26:23.091Z,8.30
2023-02-15T14:28:59.635Z,8.70
2023-02-15T14:31:33.228Z,8.13
2023-02-15T14:34:01.405Z,9.07
2023-02-15T14:36:31.429Z,8.80
2023-02-15T14:39:35.195Z,9.43
2023-02-15T14:42:10.122Z,8.57
2023-02-15T14:44:41.011Z,8.53
2023-02-15T14:47:15.649Z,9.37
2023-02-15T14:49:43.947Z,8.33
2023-02-15T14:52:12.534Z,9.70
2023-02-15T14:54:59.178Z,9.10
2023-02-15T14:57:35.749Z,9.07
2023-02-15T15:00:33.547Z,9.27
2023-02-15T15:03:02.163Z,8.53
2023-02-15T15:05:35.977Z,8.03
2023-02-15T15:08:06.581Z,9.20
2023-02-15T15:10:49.726Z,9.40
2023-02-15T15:14:02.802Z,9.17
2023-02-15T15:16:50.810Z,8.70
2023-02-15T15:20:13.976Z,8.77
2023-02-15T15:22:43.339Z,9.43
2023-02-15T15:25:13.957Z,8.93
2023-02-15T15:27:46.833Z,9.73
2023-02-15T15:31:02.706Z,8.97
2023-02-15T15:34:22.568Z,8.77
2023-02-15T15:37:30.062Z,8.90
2023-02-15T15:40:42.573Z,9.13
2023-02-15T15:43:54.976Z,8.67
2023-02-15T15:46:54.062Z,8.93
2023-02-15T15:49:25.314Z,8.90
2023-02-15T15:51:54.029Z,10.00
2023-02-15T15:54:24.126Z,9.30
2023-02-15T15:56:55.821Z,9.03
2023-02-15T15:59:27.538Z,9.30
2023-02-15T16:01:56.195Z,8.87
2023-02-15T16:04:30.781Z,9.03
2023-02-15T16:06:59.364Z,8.33
2023-02-15T16:09:29.083Z,9.77
2023-02-15T16:12:01.379Z,9.77
2023-02-15T16:14:33.573Z,8.53
2023-02-15T16:17:04.144Z,9.37
2023-02-15T16:19:36.669Z,9.50
2023-02-15T16:22:05.835Z,10.57
2023-02-15T16:24:54.607Z,9.13
2023-02-15T16:27:36.951Z,8.47
2023-02-15T16:30:26.971Z,9.60
2023-02-15T16:32:56.585Z,8.93
2023-02-15T16:35:25.606Z,8.97
2023-02-15T16:37:53.468Z,8.60
2023-02-15T16:40:35.554Z,8.97
2023-02-15T16:43:07.581Z,9.63
2023-02-15T16:45:39.790Z,9.70
2023-02-15T16:48:15.082Z,9.60
2023-02-15T16:50:50.724Z,9.83
2023-02-15T16:53:24.987Z,10.13
2023-02-15T16:55:55.415Z,9.47
2023-02-15T16:58:30.687Z,9.60
2023-02-15T17:01:03.014Z,9.00
2023-02-15T17:03:31.564Z,10.33
2023-02-15T17:06:01.008Z,9.13
2023-02-15T17:08:31.902Z,8.77
2023-02-15T17:11:13.961Z,8.97
2023-02-15T17:14:03.511Z,10.03
2023-02-15T17:16:35.408Z,9.07
2023-02-15T17:19:04.826Z,9.10
2023-02-15T17:21:34.712Z,9.13
2023-02-15T17:24:05.248Z,9.43
2023-02-15T17:26:36.118Z,8.87
2023-02-15T17:29:16.439Z,8.70
2023-02-15T17:31:50.624Z,9.03
2023-02-15T17:34:54.364Z,9.07
2023-02-15T17:37:28.535Z,8.87
2023-02-15T17:39:57.015Z,8.93
2023-02-15T17:42:25.002Z,8.90
2023-02-15T17:44:53.058Z,9.27
2023-02-15T17:47:27.911Z,9.77
2023-02-15T17:49:56.092Z,9.40
2023-02-15T17:52:32.012Z,9.10
2023-02-15T17:55:17.522Z,9.07
2023-02-15T17:57:45.742Z,9.20
2023-02-15T18:00:34.570Z,10.27
2023-02-15T18:03:21.567Z,9.10
2023-02-15T18:06:07.152Z,9.73
2023-02-15T18:08:52.395Z,9.73
2023-02-15T18:11:36.897Z,9.37
2023-02-15T18:14:05.797Z,8.93
2023-02-15T18:16:36.489Z,8.97
2023-02-15T18:19:06.965Z,9.23
2023-02-15T18:21:35.024Z,9.60
2023-02-15T18:24:03.141Z,9.37
2023-02-15T18:26:31.280Z,10.47
2023-02-15T18:28:59.257Z,8.97
2023-02-15T18:31:27.553Z,9.47
2023-02-15T18:33:59.049Z,9.57
2023-02-15T18:36:33.085Z,10.00
2023-02-15T18:39:08.441Z,9.00
2023-02-15T18:41:36.968Z,9.67
2023-02-15T18:44:05.072Z,10.30
2023-02-15T18:46:33.171Z,9.47
2023-02-15T18:49:01.113Z,8.43
2023-02-15T18:51:30.378Z,9.20
2023-02-15T18:54:03.768Z,9.43
2023-02-15T18:56:32.861Z,9.53
2023-02-15T18:59:01.109Z,9.53
2023-02-15T19:01:29.600Z,9.13
2023-02-15T19:03:57.523Z,9.07
2023-02-15T19:06:25.619Z,9.43
2023-02-15T19:08:55.097Z,9.57
2023-02-15T19:11:25.672Z,9.23
2023-02-15T19:13:55.049Z,9.70
2023-02-15T19:16:32.195Z,8.83
2023-02-15T19:19:00.778Z,10.40
2023-02-15T19:21:31.005Z,9.93
2023-02-15T19:24:05.931Z,9.03
2023-02-15T19:26:45.281Z,8.70
2023-02-15T19:29:16.013Z,9.97
2023-02-15T19:31:44.298Z,9.40
2023-02-15T19:34:15.846Z,10.00
2023-02-15T19:36:45.407Z,10.40
2023-02-15T19:39:25.172Z,9.43
2023-02-15T19:41:53.482Z,9.63
2023-02-15T19:44:21.889Z,9.50
2023-02-15T19:46:49.890Z,9.60
2023-02-15T19:49:17.806Z,10.70
2023-02-15T19:51:45.881Z,10.10
2023-02-15T19:54:30.653Z,9.53
2023-02-15T19:56:58.909Z,10.03
2023-02-15T19:59:28.817Z,8.87
2023-02-15T20:01:57.311Z,10.20
2023-02-15T20:04:25.791Z,10.13
2023-02-15T20:06:56.058Z,9.37
2023-02-15T20:09:27.618Z,9.67
2023-02-15T20:11:56.377Z,9.33
2023-02-15T20:14:25.065Z,9.87
2023-02-15T20:16:53.285Z,9.97
2023-02-15T20:19:21.281Z,9.27
2023-02-15T20:21:54.511Z,10.00
2023-02-15T20:24:26.819Z,11.27
2023-02-15T20:26:54.750Z,12.47
2023-02-15T20:29:22.727Z,13.23
2023-02-15T20:31:52.842Z,12.07
2023-02-15T20:34:22.890Z,12.67
2023-02-15T20:36:51.145Z,10.27
2023-02-15T20:39:20.673Z,10.87
2023-02-15T20:41:49.929Z,10.43
2023-02-15T20:44:24.017Z,10.20
2023-02-15T20:46:54.591Z,10.37
2023-02-15T20:49:23.879Z,10.63
2023-02-15T20:51:52.401Z,10.27
2023-02-15T20:54:22.812Z,9.70
2023-02-15T20:56:52.249Z,10.53
2023-02-15T20:59:26.054Z,10.83
2023-02-15T21:01:58.855Z,10.73
2023-02-15T21:04:30.955Z,9.97
2023-02-15T21:06:59.640Z,10.83
2023-02-15T21:09:27.567Z,11.27
2023-02-15T21:11:59.209Z,11.47
2023-02-15T21:14:29.353Z,10.20
2023-02-15T21:16:57.530Z,10.87
2023-02-15T21:19:25.863Z,10.73
2023-02-15T21:21:54.589Z,10.33
2023-02-15T21:24:25.330Z,10.60
2023-02-15T21:26:53.904Z,11.60
2023-02-15T21:29:25.435Z,11.37
2023-02-15T21:31:54.028Z,10.97
2023-02-15T21:34:22.440Z,10.10
2023-02-15T21:36:51.226Z,11.87
2023-02-15T21:39:22.881Z,11.03
2023-02-15T21:42:09.493Z,10.50
2023-02-15T21:44:56.418Z,10.97
2023-02-15T21:47:44.085Z,11.07
2023-02-15T21:50:31.225Z,10.77
2023-02-15T21:52:59.785Z,10.70
2023-02-15T21:55:28.126Z,10.27
2023-02-15T21:57:56.004Z,11.00
2023-02-15T22:00:26.497Z,11.60
2023-02-15T22:02:56.668Z,11.57
2023-02-15T22:05:27.835Z,12.03
2023-02-15T22:07:57.084Z,11.97
2023-02-15T22:10:26.314Z,11.60
2023-02-15T22:12:55.745Z,11.33
2023-02-15T22:15:27.272Z,11.87
2023-02-15T22:17:55.508Z,12.03
2023-02-15T22:20:25.021Z,12.20
2023-02-15T22:22:53.900Z,12.10
2023-02-15T22:25:25.278Z,11.53
2023-02-15T22:27:55.372Z,12.27
2023-02-15T22:30:28.639Z,10.77
2023-02-15T22:32:58.844Z,11.47
2023-02-15T22:35:28.820Z,12.30
2023-02-15T22:37:57.254Z,11.50
2023-02-15T22:40:29.852Z,11.33
2023-02-15T22:43:00.512Z,10.87
2023-02-15T22:45:30.018Z,11.73
2023-02-15T22:48:00.222Z,11.87
2023-02-15T22:50:30.036Z,12.57
2023-02-15T22:53:00.280Z,12.07
2023-02-15T22:55:31.123Z,11.27
2023-02-15T22:57:59.529Z,11.43
2023-02-15T23:00:30.778Z,12.43
2023-02-15T23:02:58.707Z,12.13
2023-02-15T23:05:28.846Z,11.40
2023-02-15T23:07:57.852Z,11.20
2023-02-15T23:10:27.532Z,11.47
2023-02-15T23:13:15.465Z,10.87
2023-02-15T23:15:48.730Z,12.30
2023-02-15T23:18:20.670Z,12.07
2023-02-15T23:20:51.408Z,12.83
2023-02-15T23:23:23.536Z,11.53
2023-02-15T23:25:51.528Z,12.23
2023-02-15T23:28:22.663Z,13.70
2023-02-15T23:30:52.249Z,11.13
2023-02-15T23:33:25.328Z,12.13
2023-02-15T23:35:53.160Z,12.70
2023-02-15T23:38:26.506Z,11.77
2023-02-15T23:41:15.818Z,11.43
2023-02-15T23:43:47.672Z,12.50
2023-02-15T23:46:28.112Z,12.63
2023-02-15T23:48:56.736Z,12.57
2023-02-15T23:51:30.467Z,12.73
2023-02-15T23:53:58.597Z,12.97
2023-02-15T23:56:26.781Z,12.30
2023-02-15T23:58:54.750Z,12.33
